createdAt,value
2022-10-08T00:01:51.604Z,8.57
2022-10-08T00:04:18.136Z,7.28
2022-10-08T00:06:44.582Z,8.40
2022-10-08T00:09:10.944Z,14.30
2022-10-08T00:11:39.753Z,13.73
2022-10-08T00:14:06.574Z,6.95
2022-10-08T00:16:36.427Z,10.98
2022-10-08T00:19:14.201Z,11.35
2022-10-08T00:21:43.775Z,8.63
2022-10-08T00:24:15.009Z,16.35
2022-10-08T00:29:13.536Z,9.02
2022-10-08T00:31:41.689Z,10.23
2022-10-08T00:34:10.815Z,11.32
2022-10-08T00:36:39.192Z,8.13
2022-10-08T00:39:15.417Z,14.35
2022-10-08T00:41:44.763Z,10.73
2022-10-08T00:44:53.954Z,12.68
2022-10-08T00:47:24.531Z,12.70
2022-10-08T00:49:55.226Z,28.00
2022-10-08T00:52:25.021Z,8.90
2022-10-08T00:54:51.805Z,12.40
2022-10-08T00:57:21.129Z,14.13
2022-10-08T00:59:47.576Z,8.15
2022-10-08T01:02:14.534Z,7.10
2022-10-08T01:04:42.924Z,8.95
2022-10-08T01:07:48.137Z,9.60
2022-10-08T01:10:34.744Z,9.02
2022-10-08T01:13:26.233Z,7.80
2022-10-08T01:19:08.105Z,9.73
2022-10-08T01:21:50.065Z,11.82
2022-10-08T01:24:44.808Z,9.45
2022-10-08T01:27:21.574Z,9.40
2022-10-08T01:29:49.139Z,10.88
2022-10-08T01:32:29.015Z,10.20
2022-10-08T01:35:01.165Z,9.82
2022-10-08T01:37:32.768Z,9.80
2022-10-08T01:40:05.221Z,10.88
2022-10-08T01:42:35.236Z,8.88
2022-10-08T01:45:07.387Z,7.80
2022-10-08T01:47:39.499Z,9.52
2022-10-08T01:50:12.811Z,14.63
2022-10-08T01:52:48.354Z,9.65
2022-10-08T01:55:21.528Z,12.20
2022-10-08T01:57:49.616Z,11.73
2022-10-08T02:00:17.635Z,11.30
2022-10-08T02:02:44.319Z,8.20
2022-10-08T02:05:12.066Z,10.68
2022-10-08T02:07:42.320Z,9.05
2022-10-08T02:10:18.474Z,11.30
2022-10-08T02:12:46.026Z,7.00
2022-10-08T02:15:20.108Z,7.65
2022-10-08T02:18:08.823Z,12.38
2022-10-08T02:20:42.206Z,16.80
2022-10-08T02:24:06.050Z,9.65
2022-10-08T02:26:37.569Z,9.85
2022-10-08T02:29:20.472Z,10.48
2022-10-08T02:32:23.636Z,9.48
2022-10-08T02:34:57.651Z,9.23
2022-10-08T02:37:42.470Z,8.18
2022-10-08T02:40:13.072Z,11.63
2022-10-08T02:42:44.759Z,8.43
2022-10-08T02:45:20.825Z,11.98
2022-10-08T02:47:53.741Z,16.60
2022-10-08T02:50:24.427Z,10.25
2022-10-08T02:52:52.457Z,8.80
2022-10-08T02:56:04.508Z,6.75
2022-10-08T02:58:32.044Z,9.13
2022-10-08T03:01:15.126Z,9.32
2022-10-08T03:03:49.072Z,9.52
2022-10-08T03:06:18.169Z,10.55
2022-10-08T03:08:49.117Z,8.35
2022-10-08T03:11:16.542Z,12.65
2022-10-08T03:13:47.031Z,7.93
2022-10-08T03:16:15.796Z,7.80
2022-10-08T03:18:43.548Z,8.43
2022-10-08T03:21:15.807Z,8.73
2022-10-08T03:23:42.232Z,9.32
2022-10-08T03:26:08.638Z,20.02
2022-10-08T03:28:35.060Z,8.13
2022-10-08T03:31:06.175Z,6.65
2022-10-08T03:33:33.613Z,10.82
2022-10-08T03:36:00.028Z,10.93
2022-10-08T03:38:26.395Z,9.45
2022-10-08T03:40:58.634Z,8.57
2022-10-08T03:43:30.559Z,10.77
2022-10-08T03:45:56.980Z,10.27
2022-10-08T03:48:23.601Z,6.32
2022-10-08T03:50:57.853Z,11.52
2022-10-08T03:53:25.333Z,11.23
2022-10-08T03:55:52.920Z,11.48
2022-10-08T03:58:20.100Z,14.05
2022-10-08T04:00:59.777Z,7.68
2022-10-08T04:03:27.194Z,6.40
2022-10-08T04:05:53.724Z,7.93
2022-10-08T04:08:20.687Z,7.70
2022-10-08T04:10:47.077Z,9.70
2022-10-08T04:13:15.381Z,13.95
2022-10-08T04:15:43.327Z,7.47
2022-10-08T04:18:12.806Z,11.65
2022-10-08T04:20:43.217Z,9.75
2022-10-08T04:23:10.457Z,7.72
2022-10-08T04:25:37.378Z,10.48
2022-10-08T04:28:04.930Z,10.82
2022-10-08T04:30:31.993Z,8.80
2022-10-08T04:32:58.936Z,8.60
2022-10-08T04:35:25.637Z,3.72
2022-10-08T04:37:52.048Z,5.65
2022-10-08T04:40:18.439Z,5.80
2022-10-08T04:42:45.157Z,5.15
2022-10-08T04:45:11.758Z,10.77
2022-10-08T04:47:38.126Z,5.68
2022-10-08T04:50:04.852Z,9.63
2022-10-08T04:52:31.948Z,8.00
2022-10-08T04:54:58.320Z,9.38
2022-10-08T04:57:24.723Z,5.93
2022-10-08T05:00:16.433Z,13.30
2022-10-08T05:02:37.630Z,10.60
2022-10-08T05:05:04.467Z,8.88
2022-10-08T05:07:30.890Z,7.85
2022-10-08T05:09:57.328Z,8.20
2022-10-08T05:12:23.754Z,7.57
2022-10-08T05:14:50.153Z,7.28
2022-10-08T05:17:16.518Z,10.93
2022-10-08T05:19:42.933Z,9.82
2022-10-08T05:22:09.337Z,12.63
2022-10-08T05:24:35.774Z,6.60
2022-10-08T05:27:02.166Z,13.20
2022-10-08T05:29:30.197Z,9.18
2022-10-08T05:31:56.786Z,8.93
2022-10-08T05:34:23.406Z,7.28
2022-10-08T05:36:49.850Z,7.60
2022-10-08T05:39:16.429Z,14.05
2022-10-08T05:41:43.045Z,10.50
2022-10-08T05:44:11.017Z,7.97
2022-10-08T05:46:38.547Z,8.38
2022-10-08T05:49:07.261Z,10.85
2022-10-08T05:51:34.088Z,9.77
2022-10-08T05:54:00.647Z,9.63
2022-10-08T05:56:28.269Z,9.23
2022-10-08T05:58:54.827Z,9.43
2022-10-08T06:01:24.149Z,10.82
2022-10-08T06:03:51.338Z,11.85
2022-10-08T06:06:18.158Z,10.20
2022-10-08T06:08:45.200Z,20.75
2022-10-08T06:11:11.617Z,11.85
2022-10-08T06:13:38.205Z,12.57
2022-10-08T06:16:07.505Z,15.25
2022-10-08T06:18:37.212Z,11.95
2022-10-08T06:21:15.158Z,11.98
2022-10-08T06:23:47.409Z,10.82
2022-10-08T06:26:14.649Z,11.07
2022-10-08T06:28:41.311Z,10.30
2022-10-08T06:31:08.490Z,10.45
2022-10-08T06:33:35.517Z,22.25
2022-10-08T06:36:06.147Z,9.45
2022-10-08T06:38:33.794Z,8.48
2022-10-08T06:41:00.503Z,11.30
2022-10-08T06:43:26.899Z,18.05
2022-10-08T06:45:53.337Z,7.63
2022-10-08T06:48:23.170Z,11.73
2022-10-08T06:50:58.030Z,12.77
2022-10-08T06:53:24.390Z,14.20
2022-10-08T06:55:56.177Z,12.73
2022-10-08T06:58:22.575Z,21.27
2022-10-08T07:00:49.053Z,7.78
2022-10-08T07:03:15.646Z,9.85
2022-10-08T07:05:43.802Z,16.25
2022-10-08T07:08:10.153Z,8.60
2022-10-08T07:10:36.722Z,8.13
2022-10-08T07:13:03.225Z,14.70
2022-10-08T07:15:31.144Z,10.55
2022-10-08T07:17:57.505Z,11.57
2022-10-08T07:20:23.884Z,14.20
2022-10-08T07:22:50.616Z,7.22
2022-10-08T07:25:17.009Z,8.32
2022-10-08T07:27:45.087Z,10.20
2022-10-08T07:30:11.794Z,12.30
2022-10-08T07:32:38.196Z,12.25
2022-10-08T07:35:04.950Z,12.65
2022-10-08T07:37:31.316Z,12.77
2022-10-08T07:39:57.734Z,9.40
2022-10-08T07:42:24.175Z,9.88
2022-10-08T07:44:50.530Z,12.90
2022-10-08T07:47:16.907Z,9.68
2022-10-08T07:49:43.622Z,10.52
2022-10-08T07:52:10.289Z,7.30
2022-10-08T07:54:36.731Z,9.77
2022-10-08T07:57:03.106Z,10.32
2022-10-08T07:59:29.458Z,6.63
2022-10-08T08:01:56.080Z,9.75
2022-10-08T08:04:25.124Z,13.18
2022-10-08T08:06:52.388Z,8.82
2022-10-08T08:09:19.117Z,11.75
2022-10-08T08:11:47.212Z,7.32
2022-10-08T08:14:13.618Z,8.48
2022-10-08T08:16:40.273Z,11.27
2022-10-08T08:19:07.145Z,6.82
2022-10-08T08:21:38.445Z,10.35
2022-10-08T08:26:38.764Z,8.82
2022-10-08T08:29:08.028Z,9.57
2022-10-08T08:31:38.306Z,13.68
2022-10-08T08:34:08.504Z,4.87
2022-10-08T08:36:37.923Z,12.05
2022-10-08T08:39:05.927Z,8.10
2022-10-08T08:41:45.381Z,11.73
2022-10-08T08:44:17.052Z,10.18
2022-10-08T08:46:52.585Z,9.23
2022-10-08T08:49:57.184Z,8.18
2022-10-08T08:52:26.382Z,9.10
2022-10-08T08:54:54.541Z,6.22
2022-10-08T08:57:40.617Z,6.90
2022-10-08T09:00:17.876Z,11.93
2022-10-08T09:02:55.575Z,10.25
2022-10-08T09:05:25.104Z,4.15
2022-10-08T09:07:57.598Z,11.02
2022-10-08T09:10:37.574Z,8.02
2022-10-08T09:13:04.236Z,12.38
2022-10-08T09:15:34.563Z,6.07
2022-10-08T09:18:02.845Z,8.83
2022-10-08T09:20:30.621Z,5.97
2022-10-08T09:22:57.737Z,7.15
2022-10-08T09:25:32.867Z,5.05
2022-10-08T09:28:01.302Z,9.75
2022-10-08T09:30:29.417Z,6.35
2022-10-08T09:33:02.320Z,9.43
2022-10-08T09:35:31.171Z,9.82
2022-10-08T09:37:59.920Z,6.22
2022-10-08T09:40:29.882Z,13.68
2022-10-08T09:43:16.661Z,9.63
2022-10-08T09:45:48.816Z,6.45
2022-10-08T09:48:26.903Z,7.05
2022-10-08T09:51:00.909Z,8.98
2022-10-08T09:53:39.979Z,8.13
2022-10-08T09:56:08.335Z,9.50
2022-10-08T09:58:47.711Z,6.95
2022-10-08T10:01:16.605Z,8.07
2022-10-08T10:03:53.656Z,8.90
2022-10-08T10:06:36.464Z,10.88
2022-10-08T10:09:11.638Z,12.27
2022-10-08T10:11:43.076Z,9.30
2022-10-08T10:14:21.443Z,7.32
2022-10-08T10:16:54.622Z,8.38
2022-10-08T10:19:28.958Z,8.95
2022-10-08T10:22:12.078Z,6.70
2022-10-08T10:25:04.137Z,10.57
2022-10-08T10:27:42.155Z,7.85
2022-10-08T10:30:21.920Z,8.50
2022-10-08T10:32:58.570Z,10.27
2022-10-08T10:35:28.697Z,5.60
2022-10-08T10:38:13.293Z,5.80
2022-10-08T10:40:47.113Z,10.18
2022-10-08T10:43:28.481Z,10.20
2022-10-08T10:46:01.845Z,6.20
2022-10-08T10:48:29.212Z,8.32
2022-10-08T10:51:21.401Z,9.65
2022-10-08T10:54:05.214Z,5.57
2022-10-08T10:56:38.855Z,8.82
2022-10-08T10:59:26.679Z,9.48
2022-10-08T11:02:20.811Z,8.50
2022-10-08T11:05:01.390Z,7.95
2022-10-08T11:07:32.705Z,4.55
2022-10-08T11:10:21.946Z,10.50
2022-10-08T11:13:00.799Z,9.05
2022-10-08T11:15:40.868Z,12.32
2022-10-08T11:18:22.514Z,8.80
2022-10-08T11:21:16.965Z,13.13
2022-10-08T11:24:20.686Z,7.75
2022-10-08T11:27:24.507Z,12.93
2022-10-08T11:30:14.164Z,8.50
2022-10-08T11:32:50.560Z,13.05
2022-10-08T11:35:23.199Z,5.53
2022-10-08T11:37:58.503Z,6.80
2022-10-08T11:40:33.884Z,15.85
2022-10-08T11:43:07.372Z,13.50
2022-10-08T11:45:37.432Z,14.13
2022-10-08T11:48:30.533Z,13.32
2022-10-08T11:51:18.866Z,10.82
2022-10-08T11:54:09.783Z,8.50
2022-10-08T11:56:40.085Z,11.93
2022-10-08T11:59:15.909Z,15.57
2022-10-08T12:01:51.111Z,8.65
2022-10-08T12:04:30.646Z,11.25
2022-10-08T12:07:25.880Z,13.55
2022-10-08T12:10:01.345Z,6.97
2022-10-08T12:12:49.134Z,8.30
2022-10-08T12:15:24.690Z,11.52
2022-10-08T12:17:56.760Z,8.73
2022-10-08T12:20:24.426Z,8.43
2022-10-08T12:23:03.085Z,16.33
2022-10-08T12:26:01.173Z,8.93
2022-10-08T12:28:35.355Z,16.27
2022-10-08T12:31:16.224Z,9.25
2022-10-08T12:33:42.800Z,10.15
2022-10-08T12:36:21.289Z,13.88
2022-10-08T12:39:06.353Z,9.88
2022-10-08T12:42:01.565Z,8.32
2022-10-08T12:44:37.846Z,4.90
2022-10-08T12:47:23.915Z,14.60
2022-10-08T12:50:04.768Z,8.65
2022-10-08T12:52:37.167Z,8.13
2022-10-08T12:55:06.124Z,8.93
2022-10-08T12:57:39.340Z,7.40
2022-10-08T13:00:20.046Z,3.30
2022-10-08T13:03:05.746Z,7.75
2022-10-08T13:05:35.526Z,7.15
2022-10-08T13:08:20.506Z,6.43
2022-10-08T13:10:46.939Z,6.45
2022-10-08T13:13:38.134Z,6.25
2022-10-08T13:16:07.645Z,6.55
2022-10-08T13:18:35.622Z,9.38
2022-10-08T13:21:08.049Z,4.30
2022-10-08T13:23:40.373Z,6.13
2022-10-08T13:26:37.679Z,7.85
2022-10-08T13:29:17.049Z,6.85
2022-10-08T13:31:43.989Z,8.40
2022-10-08T13:34:16.154Z,4.30
2022-10-08T13:36:52.360Z,7.53
2022-10-08T13:39:25.641Z,7.72
2022-10-08T13:41:58.213Z,6.60
2022-10-08T13:44:25.923Z,5.97
2022-10-08T13:46:52.629Z,7.28
2022-10-08T13:49:25.529Z,3.53
2022-10-08T13:51:52.427Z,7.03
2022-10-08T13:54:31.208Z,5.38
2022-10-08T13:56:58.109Z,7.28
2022-10-08T13:59:29.595Z,3.75
2022-10-08T14:01:57.047Z,5.90
2022-10-08T14:04:23.511Z,6.50
2022-10-08T14:06:52.743Z,11.05
2022-10-08T14:09:22.469Z,6.25
2022-10-08T14:11:55.470Z,4.85
2022-10-08T14:14:24.038Z,4.05
2022-10-08T14:16:51.326Z,7.03
2022-10-08T14:19:18.260Z,11.57
2022-10-08T14:21:44.929Z,7.40
2022-10-08T14:24:12.201Z,4.43
2022-10-08T14:26:38.770Z,10.10
2022-10-08T14:29:05.347Z,7.03
2022-10-08T14:31:31.908Z,4.43
2022-10-08T14:33:58.372Z,4.85
2022-10-08T14:36:31.708Z,3.80
2022-10-08T14:38:58.140Z,6.35
2022-10-08T14:41:25.556Z,3.85
2022-10-08T14:43:52.136Z,6.07
2022-10-08T14:46:18.617Z,7.55
2022-10-08T14:48:45.182Z,4.38
2022-10-08T14:51:12.418Z,3.28
2022-10-08T14:53:39.141Z,3.72
2022-10-08T14:56:12.525Z,4.90
2022-10-08T14:58:39.496Z,3.70
2022-10-08T15:01:06.157Z,5.55
2022-10-08T15:03:32.672Z,7.50
2022-10-08T15:06:00.362Z,6.13
2022-10-08T15:08:27.986Z,4.80
2022-10-08T15:10:54.409Z,4.90
2022-10-08T15:13:21.068Z,4.68
2022-10-08T15:15:47.483Z,7.57
2022-10-08T15:18:14.277Z,5.00
2022-10-08T15:20:40.742Z,6.32
2022-10-08T15:23:09.496Z,3.53
2022-10-08T15:25:36.201Z,3.28
2022-10-08T15:28:02.645Z,6.95
2022-10-08T15:30:29.037Z,5.75
2022-10-08T15:32:55.474Z,4.93
2022-10-08T15:35:22.508Z,5.63
2022-10-08T15:37:48.890Z,5.20
2022-10-08T15:40:15.392Z,5.00
2022-10-08T15:42:41.793Z,5.35
2022-10-08T15:45:08.515Z,5.57
2022-10-08T15:47:35.039Z,7.82
2022-10-08T15:50:01.880Z,4.28
2022-10-08T15:52:28.359Z,9.63
2022-10-08T15:54:54.811Z,3.83
2022-10-08T15:57:21.278Z,6.93
2022-10-08T15:59:47.835Z,8.35
2022-10-08T16:02:17.426Z,10.30
2022-10-08T16:04:53.199Z,6.95
2022-10-08T16:07:20.040Z,8.45
2022-10-08T16:09:46.422Z,11.07
2022-10-08T16:12:13.096Z,14.98
2022-10-08T16:14:39.472Z,12.75
2022-10-08T16:17:05.924Z,13.25
2022-10-08T16:19:32.351Z,16.98
2022-10-08T16:21:58.833Z,18.75
2022-10-08T16:24:25.264Z,13.35
2022-10-08T16:26:52.148Z,16.95
2022-10-08T16:29:18.602Z,17.35
2022-10-08T16:31:46.744Z,20.67
2022-10-08T16:34:18.877Z,15.38
2022-10-08T16:36:47.920Z,11.77
2022-10-08T16:39:17.957Z,10.05
2022-10-08T16:41:44.884Z,6.85
2022-10-08T16:44:14.460Z,11.77
2022-10-08T16:46:48.343Z,5.55
2022-10-08T16:49:23.680Z,11.70
2022-10-08T16:51:55.738Z,13.82
2022-10-08T16:54:22.431Z,13.48
2022-10-08T16:56:48.879Z,8.80
2022-10-08T16:59:20.582Z,15.77
2022-10-08T17:01:49.169Z,9.98
2022-10-08T17:04:17.162Z,14.40
2022-10-08T17:06:44.058Z,10.07
2022-10-08T17:09:11.478Z,10.68
2022-10-08T17:11:38.544Z,8.60
2022-10-08T17:14:07.504Z,12.75
2022-10-08T17:16:35.626Z,9.43
2022-10-08T17:19:02.640Z,6.75
2022-10-08T17:21:30.140Z,8.60
2022-10-08T17:23:58.105Z,6.75
2022-10-08T17:26:26.550Z,9.57
2022-10-08T17:28:53.191Z,9.70
2022-10-08T17:31:25.444Z,8.27
2022-10-08T17:33:52.512Z,8.38
2022-10-08T17:36:21.693Z,6.35
2022-10-08T17:38:52.605Z,9.57
2022-10-08T17:41:25.142Z,8.77
2022-10-08T17:43:52.693Z,14.85
2022-10-08T17:46:25.523Z,10.73
2022-10-08T17:48:52.440Z,13.60
2022-10-08T17:51:21.658Z,9.35
2022-10-08T17:54:02.519Z,15.57
2022-10-08T17:56:29.533Z,10.00
2022-10-08T17:58:56.843Z,12.15
2022-10-08T18:01:34.728Z,12.85
2022-10-08T18:04:06.867Z,12.15
2022-10-08T18:06:35.954Z,8.98
2022-10-08T18:09:05.330Z,8.10
2022-10-08T18:11:37.024Z,8.23
2022-10-08T18:14:05.564Z,12.32
2022-10-08T18:16:33.101Z,10.88
2022-10-08T18:19:01.847Z,8.75
2022-10-08T18:21:31.868Z,7.07
2022-10-08T18:23:59.022Z,14.15
2022-10-08T18:26:27.889Z,10.52
2022-10-08T18:28:57.044Z,9.32
2022-10-08T18:31:26.222Z,8.88
2022-10-08T18:33:58.674Z,13.75
2022-10-08T18:36:30.152Z,15.15
2022-10-08T18:39:02.371Z,23.42
2022-10-08T18:41:38.629Z,15.70
2022-10-08T18:44:06.721Z,10.38
2022-10-08T18:46:35.870Z,11.15
2022-10-08T18:49:02.679Z,19.73
2022-10-08T18:51:29.667Z,13.98
2022-10-08T18:53:57.352Z,7.93
2022-10-08T18:56:29.903Z,11.88
2022-10-08T18:59:01.647Z,8.90
2022-10-08T19:01:31.174Z,6.97
2022-10-08T19:03:59.621Z,6.40
2022-10-08T19:06:32.257Z,8.55
2022-10-08T19:09:00.339Z,12.85
2022-10-08T19:11:37.683Z,26.83
2022-10-08T19:14:08.610Z,28.98
2022-10-08T19:16:36.497Z,26.85
2022-10-08T19:19:05.678Z,40.22
2022-10-08T19:21:33.945Z,33.28
2022-10-08T19:24:01.069Z,36.80
2022-10-08T19:26:30.272Z,22.52
2022-10-08T19:28:57.532Z,16.15
2022-10-08T19:31:32.246Z,16.58
2022-10-08T19:34:01.780Z,12.70
2022-10-08T19:36:31.872Z,13.95
2022-10-08T19:39:07.499Z,6.57
2022-10-08T19:41:33.958Z,6.43
2022-10-08T19:44:00.568Z,10.90
2022-10-08T19:46:28.198Z,11.45
2022-10-08T19:48:57.911Z,11.93
2022-10-08T19:51:25.542Z,9.80
2022-10-08T19:53:52.758Z,10.25
2022-10-08T19:56:20.842Z,5.70
2022-10-08T19:58:49.622Z,7.60
2022-10-08T20:01:18.556Z,8.15
2022-10-08T20:03:45.030Z,9.18
2022-10-08T20:06:13.524Z,8.93
2022-10-08T20:08:40.126Z,8.52
2022-10-08T20:11:13.273Z,6.72
2022-10-08T20:13:40.790Z,12.80
2022-10-08T20:16:10.093Z,6.15
2022-10-08T20:18:36.988Z,7.25
2022-10-08T20:21:05.776Z,9.90
2022-10-08T20:23:32.854Z,5.32
2022-10-08T20:26:14.854Z,9.23
2022-10-08T20:28:41.598Z,18.88
2022-10-08T20:31:31.915Z,59.15
2022-10-08T20:34:00.814Z,27.98
2022-10-08T20:36:28.284Z,20.08
2022-10-08T20:38:54.845Z,11.68
2022-10-08T20:41:24.468Z,10.27
2022-10-08T20:43:55.917Z,8.82
2022-10-08T20:46:22.800Z,8.52
2022-10-08T20:48:49.222Z,12.60
2022-10-08T20:51:18.544Z,8.30
2022-10-08T20:53:56.839Z,12.98
2022-10-08T20:56:24.137Z,12.75
2022-10-08T20:58:50.727Z,9.15
2022-10-08T21:01:20.025Z,15.60
2022-10-08T21:03:47.549Z,10.57
2022-10-08T21:06:16.694Z,11.45
2022-10-08T21:08:45.293Z,31.23
2022-10-08T21:11:14.381Z,14.55
2022-10-08T21:13:40.956Z,12.63
2022-10-08T21:16:19.943Z,13.90
2022-10-08T21:18:51.544Z,146.73
2022-10-08T21:21:18.570Z,392.23
2022-10-08T21:23:45.689Z,161.25
2022-10-08T21:26:20.794Z,54.13
2022-10-08T21:28:49.232Z,16.70
2022-10-08T21:31:17.360Z,17.33
2022-10-08T21:33:46.188Z,23.92
2022-10-08T21:36:15.957Z,14.18
2022-10-08T21:38:42.986Z,5.47
2022-10-08T21:41:12.596Z,13.35
2022-10-08T21:43:47.011Z,22.98
2022-10-08T21:46:19.607Z,15.20
2022-10-08T21:48:46.844Z,15.43
2022-10-08T21:51:16.928Z,12.95
2022-10-08T21:53:52.007Z,14.95
2022-10-08T21:56:22.148Z,15.93
2022-10-08T21:58:51.041Z,15.18
2022-10-08T22:01:35.377Z,7.47
2022-10-08T22:04:03.361Z,9.20
2022-10-08T22:06:32.123Z,15.10
2022-10-08T22:08:59.126Z,9.50
2022-10-08T22:11:25.929Z,9.45
2022-10-08T22:13:52.882Z,8.00
2022-10-08T22:16:21.641Z,7.78
2022-10-08T22:18:48.543Z,11.02
2022-10-08T22:21:17.838Z,7.60
2022-10-08T22:23:44.259Z,10.52
2022-10-08T22:26:14.239Z,7.80
2022-10-08T22:28:40.866Z,5.97
2022-10-08T22:31:09.627Z,11.63
2022-10-08T22:33:36.734Z,13.13
2022-10-08T22:36:05.405Z,12.82
2022-10-08T22:38:33.930Z,9.35
2022-10-08T22:41:19.232Z,28.38
2022-10-08T22:43:46.092Z,16.63
2022-10-08T22:46:19.199Z,15.23
2022-10-08T22:48:46.206Z,9.10
2022-10-08T22:51:18.348Z,6.82
2022-10-08T22:53:45.645Z,9.60
2022-10-08T22:56:14.890Z,8.23
2022-10-08T22:58:41.333Z,6.25
2022-10-08T23:01:10.761Z,8.50
2022-10-08T23:03:38.117Z,9.50
2022-10-08T23:06:06.236Z,8.18
2022-10-08T23:08:33.953Z,4.95
2022-10-08T23:11:01.136Z,7.70
2022-10-08T23:13:28.326Z,7.20
2022-10-08T23:16:05.782Z,5.68
2022-10-08T23:18:33.776Z,15.73
2022-10-08T23:21:02.331Z,20.33
2022-10-08T23:23:29.096Z,10.13
2022-10-08T23:26:02.197Z,12.15
2022-10-08T23:28:29.941Z,9.90
2022-10-08T23:31:06.150Z,19.15
2022-10-08T23:33:32.685Z,9.55
2022-10-08T23:35:59.154Z,31.30
2022-10-08T23:38:25.596Z,65.38
2022-10-08T23:40:52.068Z,19.30
2022-10-08T23:43:18.536Z,6.18
2022-10-08T23:45:45.009Z,9.30
2022-10-08T23:48:11.482Z,58.45
2022-10-08T23:50:38.380Z,54.85
2022-10-08T23:53:05.058Z,17.63
2022-10-08T23:55:31.452Z,13.05
2022-10-08T23:57:57.859Z,20.08
